sensor_id;sensor_type;location;lat;lon;timestamp;pressure;altitude;pressure_sealevel;temperature;humidity
6938;BME280;40040;42.706;23.372;2023-05-16T00:00:05;147674.28;;;14.21;100.00
6938;BME280;40040;42.706;23.372;2023-05-16T00:02:33;147680.44;;;14.23;100.00
6938;BME280;40040;42.706;23.372;2023-05-16T00:05:01;147679.19;;;14.23;100.00
6938;BME280;40040;42.706;23.372;2023-05-16T00:07:29;147624.78;;;14.01;100.00
6938;BME280;40040;42.706;23.372;2023-05-16T00:09:57;147689.16;;;14.27;100.00
6938;BME280;40040;42.706;23.372;2023-05-16T00:12:24;147686.69;;;14.26;100.00
6938;BME280;40040;42.706;23.372;2023-05-16T00:14:50;147576.53;;;13.81;100.00
6938;BME280;40040;42.706;23.372;2023-05-16T00:17:17;147668.06;;;14.18;100.00
6938;BME280;40040;42.706;23.372;2023-05-16T00:19:45;147644.53;;;14.09;100.00
6938;BME280;40040;42.706;23.372;2023-05-16T00:22:13;147619.81;;;13.99;100.00
6938;BME280;40040;42.706;23.372;2023-05-16T00:24:40;147640.84;;;14.07;100.00
6938;BME280;40040;42.706;23.372;2023-05-16T00:27:09;147593.84;;;13.88;100.00
6938;BME280;40040;42.706;23.372;2023-05-16T00:29:35;147632.19;;;14.04;100.00
6938;BME280;40040;42.706;23.372;2023-05-16T00:32:02;147582.72;;;13.84;100.00
6938;BME280;40040;42.706;23.372;2023-05-16T00:34:29;147624.78;;;14.01;100.00
6938;BME280;40040;42.706;23.372;2023-05-16T00:36:56;147623.53;;;14.00;100.00
6938;BME280;40040;42.706;23.372;2023-05-16T00:39:23;147624.78;;;14.01;100.00
6938;BME280;40040;42.706;23.372;2023-05-16T00:41:50;147624.78;;;14.01;100.00
6938;BME280;40040;42.706;23.372;2023-05-16T00:44:18;147609.91;;;13.95;100.00
6938;BME280;40040;42.706;23.372;2023-05-16T00:46:45;147597.53;;;13.90;100.00
6938;BME280;40040;42.706;23.372;2023-05-16T00:49:11;147571.56;;;13.79;100.00
6938;BME280;40040;42.706;23.372;2023-05-16T00:51:38;147635.88;;;14.05;100.00
6938;BME280;40040;42.706;23.372;2023-05-16T00:54:05;147642.09;;;14.08;100.00
6938;BME280;40040;42.706;23.372;2023-05-16T00:56:33;147626.03;;;14.01;100.00
6938;BME280;40040;42.706;23.372;2023-05-16T00:59:00;147611.16;;;13.95;100.00
6938;BME280;40040;42.706;23.372;2023-05-16T01:01:29;147595.09;;;13.89;100.00
6938;BME280;40040;42.706;23.372;2023-05-16T01:03:57;147602.50;;;13.92;100.00
6938;BME280;40040;42.706;23.372;2023-05-16T01:06:25;147572.81;;;13.80;100.00
6938;BME280;40040;42.706;23.372;2023-05-16T01:08:52;147595.09;;;13.89;100.00
6938;BME280;40040;42.706;23.372;2023-05-16T01:11:23;147602.50;;;13.92;100.00
6938;BME280;40040;42.706;23.372;2023-05-16T01:13:58;147588.88;;;13.86;100.00
6938;BME280;40040;42.706;23.372;2023-05-16T01:16:32;147579.03;;;13.82;100.00
6938;BME280;40040;42.706;23.372;2023-05-16T01:19:09;147577.78;;;13.82;100.00
6938;BME280;40040;42.706;23.372;2023-05-16T01:21:46;147545.59;;;13.69;100.00
6938;BME280;40040;42.706;23.372;2023-05-16T01:24:21;147553.06;;;13.72;100.00
6938;BME280;40040;42.706;23.372;2023-05-16T01:26:50;147572.81;;;13.80;100.00
6938;BME280;40040;42.706;23.372;2023-05-16T01:29:18;147579.03;;;13.82;100.00
6938;BME280;40040;42.706;23.372;2023-05-16T01:31:45;147572.81;;;13.80;100.00
6938;BME280;40040;42.706;23.372;2023-05-16T01:34:11;147576.53;;;13.81;100.00
6938;BME280;40040;42.706;23.372;2023-05-16T01:36:43;147575.31;;;13.81;100.00
6938;BME280;40040;42.706;23.372;2023-05-16T01:39:16;147580.22;;;13.83;100.00
6938;BME280;40040;42.706;23.372;2023-05-16T01:41:54;147555.50;;;13.73;100.00
6938;BME280;40040;42.706;23.372;2023-05-16T01:44:30;147570.38;;;13.79;100.00
6938;BME280;40040;42.706;23.372;2023-05-16T01:47:02;147541.88;;;13.67;100.00
6938;BME280;40040;42.706;23.372;2023-05-16T01:49:34;147553.06;;;13.72;100.00
6938;BME280;40040;42.706;23.372;2023-05-16T01:52:13;147544.38;;;13.68;100.00
6938;BME280;40040;42.706;23.372;2023-05-16T01:54:44;147543.13;;;13.68;100.00
6938;BME280;40040;42.706;23.372;2023-05-16T01:57:14;147527.06;;;13.61;100.00
6938;BME280;40040;42.706;23.372;2023-05-16T01:59:42;147555.50;;;13.73;100.00
6938;BME280;40040;42.706;23.372;2023-05-16T02:02:10;147565.41;;;13.77;100.00
6938;BME280;40040;42.706;23.372;2023-05-16T02:04:36;147562.91;;;13.76;100.00
6938;BME280;40040;42.706;23.372;2023-05-16T02:07:03;147529.53;;;13.62;100.00
6938;BME280;40040;42.706;23.372;2023-05-16T02:09:30;147558.00;;;13.74;100.00
6938;BME280;40040;42.706;23.372;2023-05-16T02:11:57;147527.06;;;13.61;100.00
6938;BME280;40040;42.706;23.372;2023-05-16T02:14:26;147544.38;;;13.68;100.00
6938;BME280;40040;42.706;23.372;2023-05-16T02:16:52;147538.19;;;13.66;100.00
6938;BME280;40040;42.706;23.372;2023-05-16T02:19:19;147502.34;;;13.51;100.00
6938;BME280;40040;42.706;23.372;2023-05-16T02:21:46;147533.22;;;13.64;100.00
6938;BME280;40040;42.706;23.372;2023-05-16T02:24:13;147498.59;;;13.49;100.00
6938;BME280;40040;42.706;23.372;2023-05-16T02:26:40;147528.28;;;13.62;100.00
6938;BME280;40040;42.706;23.372;2023-05-16T02:29:06;147525.81;;;13.61;100.00
6938;BME280;40040;42.706;23.372;2023-05-16T02:31:35;147515.91;;;13.56;100.00
6938;BME280;40040;42.706;23.372;2023-05-16T02:34:01;147534.47;;;13.64;100.00
6938;BME280;40040;42.706;23.372;2023-05-16T02:36:28;147538.19;;;13.66;100.00
6938;BME280;40040;42.706;23.372;2023-05-16T02:38:56;147548.09;;;13.70;100.00
6938;BME280;40040;42.706;23.372;2023-05-16T02:41:23;147553.06;;;13.72;100.00
6938;BME280;40040;42.706;23.372;2023-05-16T02:43:50;147559.19;;;13.74;100.00
6938;BME280;40040;42.706;23.372;2023-05-16T02:46:24;147530.78;;;13.63;100.00
6938;BME280;40040;42.706;23.372;2023-05-16T02:48:53;147580.22;;;13.83;100.00
6938;BME280;40040;42.706;23.372;2023-05-16T02:51:21;147577.78;;;13.82;100.00
6938;BME280;40040;42.706;23.372;2023-05-16T02:53:49;147586.44;;;13.85;100.00
6938;BME280;40040;42.706;23.372;2023-05-16T02:56:15;147556.75;;;13.73;100.00
6938;BME280;40040;42.706;23.372;2023-05-16T02:58:44;147544.38;;;13.68;100.00
6938;BME280;40040;42.706;23.372;2023-05-16T03:01:10;147579.03;;;13.82;100.00
6938;BME280;40040;42.706;23.372;2023-05-16T03:03:37;147525.81;;;13.61;100.00
6938;BME280;40040;42.706;23.372;2023-05-16T03:06:05;147574.06;;;13.80;100.00
6938;BME280;40040;42.706;23.372;2023-05-16T03:08:32;147575.31;;;13.81;100.00
6938;BME280;40040;42.706;23.372;2023-05-16T03:11:00;147575.31;;;13.81;100.00
6938;BME280;40040;42.706;23.372;2023-05-16T03:13:27;147558.00;;;13.74;100.00
6938;BME280;40040;42.706;23.372;2023-05-16T03:15:54;147577.78;;;13.82;100.00
6938;BME280;40040;42.706;23.372;2023-05-16T03:18:21;147592.63;;;13.88;100.00
6938;BME280;40040;42.706;23.372;2023-05-16T03:20:48;147592.63;;;13.88;100.00
6938;BME280;40040;42.706;23.372;2023-05-16T03:23:18;147575.31;;;13.81;100.00
6938;BME280;40040;42.706;23.372;2023-05-16T03:25:45;147575.31;;;13.81;100.00
6938;BME280;40040;42.706;23.372;2023-05-16T03:28:12;147612.41;;;13.96;100.00
6938;BME280;40040;42.706;23.372;2023-05-16T03:30:39;147629.72;;;14.03;100.00
6938;BME280;40040;42.706;23.372;2023-05-16T03:33:06;147622.31;;;14.00;100.00
6938;BME280;40040;42.706;23.372;2023-05-16T03:35:33;147580.22;;;13.83;100.00
6938;BME280;40040;42.706;23.372;2023-05-16T03:38:00;147579.03;;;13.82;100.00
6938;BME280;40040;42.706;23.372;2023-05-16T03:40:28;147609.91;;;13.95;100.00
6938;BME280;40040;42.706;23.372;2023-05-16T03:42:55;147609.91;;;13.95;100.00
6938;BME280;40040;42.706;23.372;2023-05-16T03:45:22;147628.47;;;14.02;100.00
6938;BME280;40040;42.706;23.372;2023-05-16T03:47:49;147634.69;;;14.05;100.00
6938;BME280;40040;42.706;23.372;2023-05-16T03:50:15;147600.03;;;13.91;100.00
6938;BME280;40040;42.706;23.372;2023-05-16T03:52:42;147585.19;;;13.85;100.00
6938;BME280;40040;42.706;23.372;2023-05-16T03:55:09;147640.84;;;14.07;100.00
6938;BME280;40040;42.706;23.372;2023-05-16T03:57:41;147628.47;;;14.02;100.00
6938;BME280;40040;42.706;23.372;2023-05-16T04:00:09;147635.88;;;14.05;100.00
6938;BME280;40040;42.706;23.372;2023-05-16T04:02:37;147626.03;;;14.01;100.00
6938;BME280;40040;42.706;23.372;2023-05-16T04:05:06;147637.13;;;14.06;100.00
6938;BME280;40040;42.706;23.372;2023-05-16T04:07:33;147652.00;;;14.12;100.00
6938;BME280;40040;42.706;23.372;2023-05-16T04:10:00;147661.88;;;14.16;100.00
6938;BME280;40040;42.706;23.372;2023-05-16T04:12:27;147671.78;;;14.20;100.00
6938;BME280;40040;42.706;23.372;2023-05-16T04:14:55;147635.88;;;14.05;100.00
6938;BME280;40040;42.706;23.372;2023-05-16T04:17:22;147671.78;;;14.20;100.00
6938;BME280;40040;42.706;23.372;2023-05-16T04:19:49;147659.41;;;14.15;100.00
6938;BME280;40040;42.706;23.372;2023-05-16T04:22:16;147671.78;;;14.20;100.00
6938;BME280;40040;42.706;23.372;2023-05-16T04:24:42;147680.44;;;14.23;100.00
6938;BME280;40040;42.706;23.372;2023-05-16T04:27:09;147689.16;;;14.27;100.00
6938;BME280;40040;42.706;23.372;2023-05-16T04:29:36;147665.63;;;14.17;100.00
6938;BME280;40040;42.706;23.372;2023-05-16T04:32:05;147679.19;;;14.23;100.00
6938;BME280;40040;42.706;23.372;2023-05-16T04:34:33;147686.69;;;14.26;100.00
6938;BME280;40040;42.706;23.372;2023-05-16T04:37:02;147691.59;;;14.28;100.00
6938;BME280;40040;42.706;23.372;2023-05-16T04:39:32;147705.22;;;14.33;100.00
6938;BME280;40040;42.706;23.372;2023-05-16T04:41:58;147699.06;;;14.31;100.00
6938;BME280;40040;42.706;23.372;2023-05-16T04:44:26;147690.41;;;14.27;100.00
6938;BME280;40040;42.706;23.372;2023-05-16T04:46:53;147711.44;;;14.36;100.00
6938;BME280;40040;42.706;23.372;2023-05-16T04:49:21;147689.16;;;14.27;100.00
6938;BME280;40040;42.706;23.372;2023-05-16T04:51:48;147721.34;;;14.40;100.00
6938;BME280;40040;42.706;23.372;2023-05-16T04:54:15;147743.56;;;14.49;100.00
6938;BME280;40040;42.706;23.372;2023-05-16T04:56:42;147748.53;;;14.51;100.00
6938;BME280;40040;42.706;23.372;2023-05-16T04:59:09;147780.75;;;14.64;100.00
6938;BME280;40040;42.706;23.372;2023-05-16T05:01:35;147748.53;;;14.51;100.00
6938;BME280;40040;42.706;23.372;2023-05-16T05:04:02;147751.03;;;14.52;100.00
6938;BME280;40040;42.706;23.372;2023-05-16T05:06:31;147655.72;;;14.13;100.00
6938;BME280;40040;42.706;23.372;2023-05-16T05:08:57;147728.75;;;14.43;100.00
6938;BME280;40040;42.706;23.372;2023-05-16T05:11:24;147773.28;;;14.61;100.00
6938;BME280;40040;42.706;23.372;2023-05-16T05:13:51;147765.88;;;14.58;100.00
6938;BME280;40040;42.706;23.372;2023-05-16T05:16:18;147779.47;;;14.63;100.00
6938;BME280;40040;42.706;23.372;2023-05-16T05:18:45;147784.44;;;14.65;100.00
6938;BME280;40040;42.706;23.372;2023-05-16T05:21:12;147788.16;;;14.67;100.00
6938;BME280;40040;42.706;23.372;2023-05-16T05:23:40;147734.91;;;14.45;100.00
6938;BME280;40040;42.706;23.372;2023-05-16T05:26:07;147772.06;;;14.60;100.00
6938;BME280;40040;42.706;23.372;2023-05-16T05:28:34;147800.53;;;14.72;100.00
6938;BME280;40040;42.706;23.372;2023-05-16T05:31:02;147805.47;;;14.74;100.00
6938;BME280;40040;42.706;23.372;2023-05-16T05:33:30;147812.88;;;14.77;100.00
6938;BME280;40040;42.706;23.372;2023-05-16T05:35:56;147815.38;;;14.78;100.00
6938;BME280;40040;42.706;23.372;2023-05-16T05:38:23;147825.25;;;14.82;100.00
6938;BME280;40040;42.706;23.372;2023-05-16T05:40:52;147812.88;;;14.77;100.00
6938;BME280;40040;42.706;23.372;2023-05-16T05:43:18;147806.72;;;14.75;100.00
6938;BME280;40040;42.706;23.372;2023-05-16T05:45:45;147803.03;;;14.73;100.00
6938;BME280;40040;42.706;23.372;2023-05-16T05:48:12;147796.81;;;14.71;100.00
6938;BME280;40040;42.706;23.372;2023-05-16T05:50:40;147810.44;;;14.76;100.00
6938;BME280;40040;42.706;23.372;2023-05-16T05:53:08;147827.75;;;14.83;100.00
6938;BME280;40040;42.706;23.372;2023-05-16T05:55:35;147820.34;;;14.80;100.00
6938;BME280;40040;42.706;23.372;2023-05-16T05:58:03;147728.75;;;14.43;100.00
6938;BME280;40040;42.706;23.372;2023-05-16T06:00:30;147836.44;;;14.87;100.00
6938;BME280;40040;42.706;23.372;2023-05-16T06:02:57;147845.09;;;14.90;100.00
6938;BME280;40040;42.706;23.372;2023-05-16T06:05:24;147856.22;;;14.95;100.00
6938;BME280;40040;42.706;23.372;2023-05-16T06:07:50;147871.09;;;15.01;100.00
6938;BME280;40040;42.706;23.372;2023-05-16T06:10:17;147879.75;;;15.04;100.00
6938;BME280;40040;42.706;23.372;2023-05-16T06:12:44;147887.16;;;15.07;100.00
6938;BME280;40040;42.706;23.372;2023-05-16T06:15:13;147861.16;;;14.97;100.00
6938;BME280;40040;42.706;23.372;2023-05-16T06:17:39;147894.59;;;15.10;100.00
6938;BME280;40040;42.706;23.372;2023-05-16T06:20:07;147910.66;;;15.17;100.00
6938;BME280;40040;42.706;23.372;2023-05-16T06:22:34;147916.88;;;15.19;100.00
6938;BME280;40040;42.706;23.372;2023-05-16T06:25:01;147911.94;;;15.17;100.00
6938;BME280;40040;42.706;23.372;2023-05-16T06:27:27;147906.97;;;15.15;100.00
6938;BME280;40040;42.706;23.372;2023-05-16T06:29:54;147924.31;;;15.22;100.00
6938;BME280;40040;42.706;23.372;2023-05-16T06:32:22;147929.25;;;15.24;100.00
6938;BME280;40040;42.706;23.372;2023-05-16T06:34:49;147932.97;;;15.26;100.00
6938;BME280;40040;42.706;23.372;2023-05-16T06:37:16;147931.75;;;15.25;100.00
6938;BME280;40040;42.706;23.372;2023-05-16T06:39:43;147902.00;;;15.13;100.00
6938;BME280;40040;42.706;23.372;2023-05-16T06:42:10;147941.63;;;15.29;100.00
6938;BME280;40040;42.706;23.372;2023-05-16T06:44:37;147906.97;;;15.15;100.00
6938;BME280;40040;42.706;23.372;2023-05-16T06:47:04;147949.09;;;15.32;100.00
6938;BME280;40040;42.706;23.372;2023-05-16T06:49:32;147916.88;;;15.19;100.00
6938;BME280;40040;42.706;23.372;2023-05-16T06:51:59;147930.50;;;15.25;100.00
6938;BME280;40040;42.706;23.372;2023-05-16T06:54:26;147936.69;;;15.27;100.00
6938;BME280;40040;42.706;23.372;2023-05-16T06:56:53;147930.50;;;15.25;100.00
6938;BME280;40040;42.706;23.372;2023-05-16T06:59:20;147939.19;;;15.28;100.00
6938;BME280;40040;42.706;23.372;2023-05-16T07:01:47;147946.59;;;15.31;100.00
6938;BME280;40040;42.706;23.372;2023-05-16T07:04:14;147921.84;;;15.21;100.00
6938;BME280;40040;42.706;23.372;2023-05-16T07:06:42;147958.97;;;15.36;100.00
6938;BME280;40040;42.706;23.372;2023-05-16T07:09:09;147934.22;;;15.26;100.00
6938;BME280;40040;42.706;23.372;2023-05-16T07:11:36;147972.66;;;15.42;100.00
6938;BME280;40040;42.706;23.372;2023-05-16T07:14:03;147962.69;;;15.38;100.00
6938;BME280;40040;42.706;23.372;2023-05-16T07:16:30;147988.72;;;15.48;100.00
6938;BME280;40040;42.706;23.372;2023-05-16T07:18:57;147998.66;;;15.52;100.00
6938;BME280;40040;42.706;23.372;2023-05-16T07:21:24;147980.06;;;15.45;100.00
6938;BME280;40040;42.706;23.372;2023-05-16T07:23:52;148006.06;;;15.55;100.00
6938;BME280;40040;42.706;23.372;2023-05-16T07:26:19;147968.94;;;15.40;100.00
6938;BME280;40040;42.706;23.372;2023-05-16T07:28:47;148038.31;;;15.68;100.00
6938;BME280;40040;42.706;23.372;2023-05-16T07:31:14;148024.66;;;15.63;100.00
6938;BME280;40040;42.706;23.372;2023-05-16T07:33:43;148075.44;;;15.84;100.00
6938;BME280;40040;42.706;23.372;2023-05-16T07:36:11;148095.28;;;15.92;100.00
6938;BME280;40040;42.706;23.372;2023-05-16T07:38:38;148102.72;;;15.95;100.00
6938;BME280;40040;42.706;23.372;2023-05-16T07:41:06;148106.41;;;15.96;100.00
6938;BME280;40040;42.706;23.372;2023-05-16T07:43:33;148121.31;;;16.02;100.00
6938;BME280;40040;42.706;23.372;2023-05-16T07:46:01;148127.47;;;16.05;100.00
6938;BME280;40040;42.706;23.372;2023-05-16T07:48:28;148169.59;;;16.22;100.00
6938;BME280;40040;42.706;23.372;2023-05-16T07:50:54;148190.66;;;16.30;100.00
6938;BME280;40040;42.706;23.372;2023-05-16T07:53:22;148204.28;;;16.36;100.00
6938;BME280;40040;42.706;23.372;2023-05-16T07:55:48;148211.72;;;16.39;100.00
6938;BME280;40040;42.706;23.372;2023-05-16T07:58:17;148220.38;;;16.42;100.00
6938;BME280;40040;42.706;23.372;2023-05-16T08:00:44;148214.22;;;16.40;100.00
6938;BME280;40040;42.706;23.372;2023-05-16T08:03:11;148184.47;;;16.28;100.00
6938;BME280;40040;42.706;23.372;2023-05-16T08:05:38;148205.53;;;16.36;100.00
6938;BME280;40040;42.706;23.372;2023-05-16T08:08:05;148241.53;;;16.51;100.00
6938;BME280;40040;42.706;23.372;2023-05-16T08:10:31;148268.78;;;16.62;100.00
6938;BME280;40040;42.706;23.372;2023-05-16T08:12:58;148275.00;;;16.64;100.00
6938;BME280;40040;42.706;23.372;2023-05-16T08:15:27;148291.09;;;16.71;100.00
6938;BME280;40040;42.706;23.372;2023-05-16T08:17:56;148304.72;;;16.76;100.00
6938;BME280;40040;42.706;23.372;2023-05-16T08:20:23;148317.13;;;16.81;100.00
6938;BME280;40040;42.706;23.372;2023-05-16T08:22:50;148303.47;;;16.76;100.00
6938;BME280;40040;42.706;23.372;2023-05-16T08:25:17;148323.34;;;16.84;100.00
6938;BME280;40040;42.706;23.372;2023-05-16T08:27:45;148322.09;;;16.83;100.00
6938;BME280;40040;42.706;23.372;2023-05-16T08:30:12;148343.16;;;16.92;100.00
6938;BME280;40040;42.706;23.372;2023-05-16T08:32:41;148360.53;;;16.99;100.00
6938;BME280;40040;42.706;23.372;2023-05-16T08:35:08;148385.31;;;17.09;100.00
6938;BME280;40040;42.706;23.372;2023-05-16T08:37:35;148405.16;;;17.17;100.00
6938;BME280;40040;42.706;23.372;2023-05-16T08:40:04;148421.28;;;17.24;100.00
6938;BME280;40040;42.706;23.372;2023-05-16T08:42:33;148439.84;;;17.31;100.00
6938;BME280;40040;42.706;23.372;2023-05-16T08:45:00;148452.28;;;17.36;100.00
6938;BME280;40040;42.706;23.372;2023-05-16T08:47:30;148447.31;;;17.34;100.00
6938;BME280;40040;42.706;23.372;2023-05-16T08:49:59;148480.84;;;17.48;100.00
6938;BME280;40040;42.706;23.372;2023-05-16T08:52:30;148487.06;;;17.50;100.00
6938;BME280;40040;42.706;23.372;2023-05-16T08:55:01;148490.78;;;17.52;100.00
6938;BME280;40040;42.706;23.372;2023-05-16T08:57:30;148518.03;;;17.63;100.00
6938;BME280;40040;42.706;23.372;2023-05-16T08:59:57;148561.44;;;17.80;100.00
6938;BME280;40040;42.706;23.372;2023-05-16T09:02:24;148591.22;;;17.92;100.00
6938;BME280;40040;42.706;23.372;2023-05-16T09:04:51;148604.88;;;17.98;100.00
6938;BME280;40040;42.706;23.372;2023-05-16T09:07:19;148630.91;;;18.09;100.00
6938;BME280;40040;42.706;23.372;2023-05-16T09:09:46;148616.06;;;18.03;100.00
6938;BME280;40040;42.706;23.372;2023-05-16T09:12:13;148660.69;;;18.21;100.00
6938;BME280;40040;42.706;23.372;2023-05-16T09:14:41;148671.88;;;18.25;100.00
6938;BME280;40040;42.706;23.372;2023-05-16T09:17:08;148679.31;;;18.28;100.00
6938;BME280;40040;42.706;23.372;2023-05-16T09:19:39;148694.19;;;18.34;100.00
6938;BME280;40040;42.706;23.372;2023-05-16T09:22:08;148620.97;;;18.05;100.00
6938;BME280;40040;42.706;23.372;2023-05-16T09:24:38;148649.53;;;18.16;100.00
6938;BME280;40040;42.706;23.372;2023-05-16T09:27:09;148660.69;;;18.21;100.00
6938;BME280;40040;42.706;23.372;2023-05-16T09:29:39;148660.69;;;18.21;100.00
6938;BME280;40040;42.706;23.372;2023-05-16T09:32:09;148647.03;;;18.15;100.00
6938;BME280;40040;42.706;23.372;2023-05-16T09:34:38;148598.69;;;17.95;100.00
6938;BME280;40040;42.706;23.372;2023-05-16T09:37:05;148593.72;;;17.93;100.00
6938;BME280;40040;42.706;23.372;2023-05-16T09:39:32;148670.63;;;18.25;100.00
6938;BME280;40040;42.706;23.372;2023-05-16T09:42:00;148676.81;;;18.27;100.00
6938;BME280;40040;42.706;23.372;2023-05-16T09:44:27;148649.53;;;18.16;100.00
6938;BME280;40040;42.706;23.372;2023-05-16T09:46:54;148632.19;;;18.09;100.00
6938;BME280;40040;42.706;23.372;2023-05-16T09:49:21;148666.91;;;18.23;100.00
6938;BME280;40040;42.706;23.372;2023-05-16T09:51:49;148665.66;;;18.23;100.00
6938;BME280;40040;42.706;23.372;2023-05-16T09:54:28;148656.97;;;18.19;100.00
6938;BME280;40040;42.706;23.372;2023-05-16T09:56:55;148696.69;;;18.35;100.00
6938;BME280;40040;42.706;23.372;2023-05-16T09:59:24;148728.97;;;18.48;100.00
6938;BME280;40040;42.706;23.372;2023-05-16T10:01:51;148750.09;;;18.57;100.00
6938;BME280;40040;42.706;23.372;2023-05-16T10:04:18;148778.66;;;18.68;100.00
6938;BME280;40040;42.706;23.372;2023-05-16T10:06:45;148779.91;;;18.69;100.00
6938;BME280;40040;42.706;23.372;2023-05-16T10:09:14;148849.38;;;18.97;100.00
6938;BME280;40040;42.706;23.372;2023-05-16T10:11:42;148849.38;;;18.97;100.00
6938;BME280;40040;42.706;23.372;2023-05-16T10:14:10;148887.88;;;19.13;100.00
6938;BME280;40040;42.706;23.372;2023-05-16T10:16:41;148876.72;;;19.08;100.00
6938;BME280;40040;42.706;23.372;2023-05-16T10:19:10;148887.88;;;19.13;100.00
6938;BME280;40040;42.706;23.372;2023-05-16T10:21:38;148874.25;;;19.07;100.00
6938;BME280;40040;42.706;23.372;2023-05-16T10:24:08;148874.25;;;19.07;100.00
6938;BME280;40040;42.706;23.372;2023-05-16T10:26:36;148834.50;;;18.91;100.00
6938;BME280;40040;42.706;23.372;2023-05-16T10:29:03;148853.16;;;18.98;100.00
6938;BME280;40040;42.706;23.372;2023-05-16T10:31:31;148817.13;;;18.84;100.00
6938;BME280;40040;42.706;23.372;2023-05-16T10:34:00;148835.78;;;18.91;100.00
6938;BME280;40040;42.706;23.372;2023-05-16T10:36:27;148815.88;;;18.83;100.00
6938;BME280;40040;42.706;23.372;2023-05-16T10:38:55;148794.78;;;18.75;100.00
6938;BME280;40040;42.706;23.372;2023-05-16T10:41:22;148782.38;;;18.70;100.00
6938;BME280;40040;42.706;23.372;2023-05-16T10:43:55;148752.59;;;18.58;100.00
6938;BME280;40040;42.706;23.372;2023-05-16T10:46:23;148789.81;;;18.73;100.00
6938;BME280;40040;42.706;23.372;2023-05-16T10:48:50;148809.69;;;18.81;100.00
6938;BME280;40040;42.706;23.372;2023-05-16T10:51:36;148829.53;;;18.89;100.00
6938;BME280;40040;42.706;23.372;2023-05-16T10:54:04;148839.50;;;18.93;100.00
6938;BME280;40040;42.706;23.372;2023-05-16T10:56:32;148864.31;;;19.03;100.00
6938;BME280;40040;42.706;23.372;2023-05-16T10:58:59;148871.75;;;19.06;100.00
6938;BME280;40040;42.706;23.372;2023-05-16T11:01:27;148895.34;;;19.16;100.00
6938;BME280;40040;42.706;23.372;2023-05-16T11:04:06;148879.19;;;19.09;100.00
6938;BME280;40040;42.706;23.372;2023-05-16T11:06:34;148860.59;;;19.01;100.00
6938;BME280;40040;42.706;23.372;2023-05-16T11:09:07;148909.03;;;19.21;100.00
6938;BME280;40040;42.706;23.372;2023-05-16T11:11:44;148928.88;;;19.29;100.00
6938;BME280;40040;42.706;23.372;2023-05-16T11:14:19;148895.34;;;19.16;100.00
6938;BME280;40040;42.706;23.372;2023-05-16T11:16:48;148943.84;;;19.35;100.00
6938;BME280;40040;42.706;23.372;2023-05-16T11:19:28;148904.06;;;19.19;100.00
6938;BME280;40040;42.706;23.372;2023-05-16T11:22:09;148951.28;;;19.38;100.00
6938;BME280;40040;42.706;23.372;2023-05-16T11:24:38;148881.69;;;19.10;100.00
6938;BME280;40040;42.706;23.372;2023-05-16T11:27:05;148841.94;;;18.94;100.00
6938;BME280;40040;42.706;23.372;2023-05-16T11:29:33;148937.63;;;19.33;100.00
6938;BME280;40040;42.706;23.372;2023-05-16T11:32:01;148938.88;;;19.33;100.00
6938;BME280;40040;42.706;23.372;2023-05-16T11:34:29;148958.72;;;19.41;100.00
6938;BME280;40040;42.706;23.372;2023-05-16T11:36:56;148982.34;;;19.51;100.00
6938;BME280;40040;42.706;23.372;2023-05-16T11:39:24;148993.50;;;19.55;100.00
6938;BME280;40040;42.706;23.372;2023-05-16T11:41:53;149015.88;;;19.64;100.00
6938;BME280;40040;42.706;23.372;2023-05-16T11:44:20;149010.88;;;19.62;100.00
6938;BME280;40040;42.706;23.372;2023-05-16T11:46:47;148978.56;;;19.49;100.00
6938;BME280;40040;42.706;23.372;2023-05-16T11:49:14;148916.47;;;19.24;100.00
6938;BME280;40040;42.706;23.372;2023-05-16T11:51:41;148981.09;;;19.50;100.00
6938;BME280;40040;42.706;23.372;2023-05-16T11:54:09;148945.03;;;19.36;100.00
6938;BME280;40040;42.706;23.372;2023-05-16T11:56:38;148942.59;;;19.35;100.00
6938;BME280;40040;42.706;23.372;2023-05-16T11:59:06;148963.69;;;19.43;100.00
6938;BME280;40040;42.706;23.372;2023-05-16T12:01:34;148956.25;;;19.40;100.00
6938;BME280;40040;42.706;23.372;2023-05-16T12:04:01;148961.19;;;19.42;100.00
6938;BME280;40040;42.706;23.372;2023-05-16T12:06:28;148994.75;;;19.56;100.00
6938;BME280;40040;42.706;23.372;2023-05-16T12:08:56;148976.09;;;19.48;100.00
6938;BME280;40040;42.706;23.372;2023-05-16T12:11:23;148978.56;;;19.49;100.00
6938;BME280;40040;42.706;23.372;2023-05-16T12:13:50;149038.22;;;19.73;100.00
6938;BME280;40040;42.706;23.372;2023-05-16T12:16:18;149085.44;;;19.92;100.00
6938;BME280;40040;42.706;23.372;2023-05-16T12:18:46;149118.97;;;20.06;100.00
6938;BME280;40040;42.706;23.372;2023-05-16T12:21:14;149147.56;;;20.17;100.00
6938;BME280;40040;42.706;23.372;2023-05-16T12:23:41;149199.75;;;20.39;100.00
6938;BME280;40040;42.706;23.372;2023-05-16T12:26:08;149192.31;;;20.36;100.00
6938;BME280;40040;42.706;23.372;2023-05-16T12:28:35;149270.63;;;20.67;100.00
6938;BME280;40040;42.706;23.372;2023-05-16T12:31:10;149293.00;;;20.76;100.00
6938;BME280;40040;42.706;23.372;2023-05-16T12:33:39;149294.22;;;20.77;100.00
6938;BME280;40040;42.706;23.372;2023-05-16T12:36:11;149279.31;;;20.71;100.00
6938;BME280;40040;42.706;23.372;2023-05-16T12:38:38;149263.13;;;20.64;100.00
6938;BME280;40040;42.706;23.372;2023-05-16T12:41:05;149234.56;;;20.53;100.00
6938;BME280;40040;42.706;23.372;2023-05-16T12:43:32;149192.31;;;20.36;100.00